• pl
  • eng

Awiacja
Kliknij na pogrubioną czerwoną nazwę, aby odkodować depeszę. 11:31 20.06.2019
  • WIND
  • SIGNIFICANT EURO
  • SIGNIFICANT
  • SIGMET
  • AIRMET
  • TAF FC
  • TAF FT
  • METAR GG30
  • METAR GG00


METAR EPBY 200930Z 21008KT 150V270 CAVOK 31/16 Q1009 =

METAR EPGD 200930Z 12009KT 070V160 CAVOK 26/20 Q1009 =

METAR EPKK 200930Z 23004KT 190V270 9999 FEW026 24/18 Q1013 =

METAR EPKT 200930Z 22009KT 150V260 9999 FEW040 26/16 Q1012 =

METAR EPLB 200930Z 17007KT 130V220 9999 SCT025 28/21 Q1012 =

METAR EPLL 200930Z 17005KT 100V240 CAVOK 29/18 Q1011 =

METAR EPMO 200930Z 19007KT CAVOK 25/18 Q1011 =

METAR EPPO 200930Z 24008KT CAVOK 30/14 Q1009 =

METAR EPRA 200930Z NIL=

METAR EPRZ 200930Z 20009KT 160V230 9999 FEW040 26/17 Q1013 =

METAR EPSC 200930Z 24008KT 210V270 9999 -SHRA FEW050CB 23/15 Q1010 =

METAR EPSY 200930Z 19007KT 130V240 CAVOK 25/20 Q1011=

METAR EPWA 200930Z 20005KT 160V240 CAVOK 25/20 Q1011 NOSIG=

METAR EPWR 200930Z 20005KT 140V270 CAVOK 28/15 Q1011 =

METAR EPZG 200930Z 24008KT 200V330 CAVOK 28/13 Q1009 =
 METAR EPKT
Lokalizacja:EPKT Katowice Pyrzowice
Czas:09:30 UTC
Średni kierunek wiatru:220 °
Średnia prędkość wiatru:9 węzłów
Kierunek wiatru zmienia się od:150 °
Kierunek wiatru zmienia się do:260 °
Widzialność:10 km i więcej
Pierwsza warstwa chmur:1/8 do 2/8, wysokość podstawy 4000 FT
Temperatura powietrza:26 °C
Temperatura punktu rosy:16 °C
Ciśnienie QNH:1012 hPa
Awiacja.imgw.pl jest pogodowym serwisem informacyjnym
Instytutu Meteorologii i Gospodarki Wodnej Państwowego Instytutu Badawczego.
Copyright IMGW PIB 2009-2011© Wszelkie prawa zastrzeżone.